createdAt,value
2023-03-23T15:59:56.768Z,98564.57
2023-03-23T16:05:21.384Z,98569.02
2023-03-23T16:10:46.848Z,98573.14
2023-03-23T16:16:51.036Z,98574.35
2023-03-23T16:22:17.136Z,98583.38
2023-03-23T16:27:43.365Z,98595.23
2023-03-23T16:33:07.604Z,98608.25
2023-03-23T16:38:33.699Z,98608.08
2023-03-23T16:44:15.213Z,98611.50
2023-03-23T16:49:40.367Z,98612.11
2023-03-23T16:55:06.103Z,98619.96
2023-03-23T17:00:30.756Z,98621.11
2023-03-23T17:05:55.421Z,98622.95
2023-03-23T17:11:19.980Z,98628.35
2023-03-23T17:16:45.507Z,98634.98
2023-03-23T17:22:09.742Z,98641.25
2023-03-23T17:27:34.531Z,98646.64
2023-03-23T17:32:58.726Z,98660.39
2023-03-23T17:38:23.120Z,98653.52
2023-03-23T17:43:47.306Z,98649.70
2023-03-23T17:49:12.837Z,98647.84
2023-03-23T17:54:37.576Z,98653.02
2023-03-23T18:00:01.669Z,98659.94
2023-03-23T18:05:32.295Z,98670.16
2023-03-23T18:10:57.773Z,98679.73
2023-03-23T18:16:21.899Z,98700.06
2023-03-23T18:21:46.588Z,98706.95
2023-03-23T18:27:11.260Z,98694.91
2023-03-23T18:32:36.882Z,98684.93
2023-03-23T18:38:01.580Z,98674.89
2023-03-23T18:43:26.139Z,98671.61
2023-03-23T18:48:50.525Z,98686.38
2023-03-23T18:54:18.099Z,98696.85
2023-03-23T18:59:42.604Z,98703.29
2023-03-23T19:05:51.058Z,98698.75
2023-03-23T19:11:19.450Z,98704.41
2023-03-23T19:16:43.463Z,98698.20
2023-03-23T19:22:09.282Z,98695.64
2023-03-23T19:33:01.858Z,98690.77
2023-03-23T19:38:26.570Z,98701.20
2023-03-23T19:43:51.228Z,98711.45
2023-03-23T19:49:15.505Z,98714.55
2023-03-23T19:54:41.089Z,98719.09
2023-03-23T20:00:08.375Z,98716.66
2023-03-23T20:05:36.897Z,98713.28
2023-03-23T20:11:12.274Z,98712.37
2023-03-23T20:16:39.026Z,98708.30
2023-03-23T20:22:05.016Z,98707.33
2023-03-23T20:27:57.685Z,98711.66
2023-03-23T20:33:42.596Z,98714.98
2023-03-23T20:39:12.029Z,98719.64
2023-03-23T20:44:40.552Z,98720.09
2023-03-23T20:50:07.527Z,98726.10
2023-03-23T20:55:33.554Z,98731.33
2023-03-23T21:01:01.910Z,98730.25
2023-03-23T21:06:29.741Z,98731.98
2023-03-23T21:11:55.920Z,98729.11
2023-03-23T21:17:48.194Z,98732.89
2023-03-23T21:24:01.662Z,98730.02
2023-03-23T21:29:28.324Z,98732.75
2023-03-23T21:34:53.778Z,98733.67
2023-03-23T21:40:21.288Z,98727.98
2023-03-23T21:45:46.670Z,98725.60
2023-03-23T21:51:15.222Z,98725.11
2023-03-23T21:56:40.435Z,98715.67
2023-03-23T22:02:04.420Z,98719.21
2023-03-23T22:07:31.088Z,98714.90
2023-03-23T22:12:57.436Z,98706.21
2023-03-23T22:18:22.298Z,98702.59
2023-03-23T22:23:47.248Z,98700.69
2023-03-23T22:29:11.804Z,98699.23
2023-03-23T22:34:36.084Z,98695.11
2023-03-23T22:40:00.988Z,98693.27
2023-03-23T22:45:27.787Z,98689.10
2023-03-23T22:50:53.378Z,98684.85
2023-03-23T22:56:18.373Z,98671.05
2023-03-23T23:01:43.013Z,98661.02
2023-03-23T23:07:12.787Z,98653.32
2023-03-23T23:12:37.661Z,98650.66
2023-03-23T23:18:05.521Z,98644.11
2023-03-23T23:23:30.201Z,98647.48
2023-03-23T23:28:54.869Z,98644.13
2023-03-23T23:34:19.410Z,98645.63
2023-03-23T23:39:43.582Z,98643.40
2023-03-23T23:45:10.704Z,98647.43
2023-03-23T23:50:36.124Z,98643.85
2023-03-23T23:56:04.038Z,98641.20
